China Grove, Texas
Current Conditions -  °F | °C
As of 5:53 AM on Sunday 23 Nov 2014 (Local Time) from KSSF Reporting Station
Clear Clear  
Wind Chill: 52°   Ceiling: Unl
Heat Index: 52°   Visibility: 10mi
Dew Point: 50°   Wind: 0mph
Humidity: 93%   Direction: NA
Pressure: 29.7"   Gusts: NA
Location:  29.3632°N, 98.3088°W
Report Text: KSSF 231153Z AUTO 00000KT 10SM CLR 11/10 A2970 RMK AO2 SLP051 70082 T01110100 10144 20106 56003
Loading
Personal Weather Stations






























Interactive Weather Map New forecast layout! Learn more

10-Day Weather Forecast

Advertisements
Track Severe Weather on mobile